Startpagina
METAR-TAF:

METAR-TAF

Vliegvelden :

Cape Town International Airport

Kaapstad, Zuid-Afrika

breedte: 33-59S, lengte: 018-36E, hoogte: 42 m

Actueel weer

Dit bericht is 40 minuten geleden gemaakt, om 18:00 UTC
Wind 9 kt uit het zuidzuidwesten
Temperatuur 19°C
Vochtigheid 83%
Druk 1008 hPa
Zicht 10 km of meer
geen wolken onder 1500 m en geen cumulonimbus

METAR: FACT 191800Z 21009KT CAVOK 19/16 Q1008 NOSIG

Tijdstip: 20:40 (18:40 UTC)

Verwachting

Dit bericht is 25 minuten geleden gemaakt, om 18:15 UTC
Verwachting geldig van 19 om 18 UTC tot 20 om 24 UTC
Wind 12 kt uit het zuidzuidwesten
Zicht 10 km of meer
geen wolken onder 1500 m en geen cumulonimbus
Kans 40% :
Tijdelijke
van 19 om 20 UTC tot 20 om 06 UTC
Gebroken wolken op 800 ft
Van 20 om 1200 UTC
Wind 16 kt uit het zuiden
Zicht 10 km of meer
Weinig wolken op 3500 ft

TAF: FACT 191815Z 1918/2024 20012KT CAVOK TX28/2012Z TN18/2004Z PROB40 TEMPO 1920/2006 BKN008 FM201200 19016KT 9999 FEW035

Waarnemingen en weersverwachtingen van meer dan 4000 vliegvelden (METAR en TAF).

De beschikbare stations zijn de gele en rode punten op de kaart.

Ga met uw muis naar het station om de naam te zien.

Klik dan om waarnemingen en weersverwachtingen te zien.

kaart wijzigen: klik op de groene knoppen met een zwart kruis om in te zoomen, op de groene knop met een streepje om uit te zoomen of op de groene pijlen voor aangrenzende kaarten.


METAR-TAF: